Capitol Logistics 1124


EHAM
Schiphol International Airport
Amsterdam, NL
UBBB
Heydar Aliyev International Airport
Baku, AZ

Activity Log

Date Flight Route Aircraft Duration
12/14/2019 CPX1124 Not Available B763 5h 00m

Route Details

Aircraft Information
Primary: Boeing 767-300BDSF
Backup: Not Available
Route Data
Distance: 1972nm
Sched. Duration: 4h 50m
Avg. Duration: 5h 00m (+51m)
Times Flown: 1
Recm'd Route: Not Available
Planned Altitude: 35,000ft
Origin Wx: EHAM 312255Z 22008KT 9999 FEW047 10/08 Q1012 NOSIG
Dest. Wx: UBBB 312230Z 33004KT 3000 BR FEW004 18/16 Q1012 R88/CLRD// NOSIG
Notes:

Financial History
Total Freight: 94,868lbs
Average Load: 94,868lbs/flt
Fuel Used: 46,359lbs
Avg. Fuel Used: 46,359lbs/flt
Fuel Expense: $37,087
Avg. Fuel Expense: $37,087
Avg. Fuel Cost: $0.80/lbs
Total Gross Income: $344,371
Pilot Pay: $259
Total Expenses: $37,244
Total Revenue: $268,740
Average Revenue: $344,370.84